Time;durP1;ratioP1;P1;durP2;ratioP2;P2;SDS_P1;SDS_P2;PMS_P1;PMS_P2;Temp;Humidity;BMP_temperature;BMP_pressure;BME280_temperature;BME280_humidity;BME280_pressure;Samples;Min_cycle;Max_cycle;Signal;HPM_P1;HPM_P2
2023/07/03 00:02:10;;;;;;;;;;;;;;;24.13;55.51;97542.19;5093443;28;19924;-75
2023/07/03 00:04:37;;;;;;;;;;;;;;;24.14;55.29;97551.94;5083882;28;19992;-75
2023/07/03 00:07:04;;;;;;;;;;;;;;;24.10;55.41;97553.00;5083655;28;19978;-75
2023/07/03 00:09:30;;;;;;;;;;;;;;;24.12;55.48;97545.28;5093039;28;19924;-75
2023/07/03 00:11:57;;;;;;;;;;;;;;;24.15;55.36;97558.97;5087638;28;20378;-75
2023/07/03 00:14:23;;;;;;;;;;;;;;;24.11;55.65;97560.84;5088310;28;20046;-75
2023/07/03 00:16:51;;;;;;;;;;;;;;;24.11;55.45;97552.66;5092972;28;19948;-75
2023/07/03 00:19:18;;;;;;;;;;;;;;;24.07;55.46;97557.25;5083475;28;19979;-75
2023/07/03 00:21:44;;;;;;;;;;;;;;;24.05;55.70;97558.72;5092764;28;19935;-75
2023/07/03 00:24:11;;;;;;;;;;;;;;;24.04;55.45;97557.16;5093024;28;19932;-75
2023/07/03 00:26:37;;;;;;;;;;;;;;;24.04;55.71;97562.63;5092719;28;20378;-76
2023/07/03 00:29:04;;;;;;;;;;;;;;;23.97;55.80;97566.00;5086617;28;19954;-75
2023/07/03 00:31:31;;;;;;;;;;;;;;;23.96;55.69;97569.06;5089163;28;19939;-75
2023/07/03 00:33:58;;;;;;;;;;;;;;;23.98;56.13;97572.25;5092425;28;20410;-75
2023/07/03 00:36:25;;;;;;;;;;;;;;;23.94;55.99;97574.91;5083049;28;19995;-75
2023/07/03 00:38:57;;;;;;;;;;;;;;;23.93;56.08;97572.50;5092326;28;19936;-75
2023/07/03 00:41:23;;;;;;;;;;;;;;;23.96;56.20;97566.34;5092323;28;19924;-75
2023/07/03 00:43:49;;;;;;;;;;;;;;;23.90;56.20;97578.69;5093022;28;19991;-75
2023/07/03 00:46:16;;;;;;;;;;;;;;;23.85;56.51;97570.78;5093550;28;19959;-74
2023/07/03 00:48:42;;;;;;;;;;;;;;;23.87;56.61;97574.72;5093130;28;19991;-74
2023/07/03 00:51:11;;;;;;;;;;;;;;;23.87;56.75;97574.72;5092886;28;19925;-75
2023/07/03 00:53:38;;;;;;;;;;;;;;;23.84;56.73;97580.09;5083131;28;19925;-75
2023/07/03 00:56:05;;;;;;;;;;;;;;;23.84;56.81;97575.44;5092415;28;19975;-75
2023/07/03 00:58:31;;;;;;;;;;;;;;;23.85;56.65;97581.69;5092376;28;19925;-75
2023/07/03 01:00:59;;;;;;;;;;;;;;;23.84;56.68;97580.91;5092413;28;19925;-75
2023/07/03 01:03:32;;;;;;;;;;;;;;;23.78;56.92;97581.53;5083526;28;19924;-75
2023/07/03 01:06:00;;;;;;;;;;;;;;;23.82;56.65;97572.31;5085260;28;19924;-75
2023/07/03 01:08:28;;;;;;;;;;;;;;;23.79;56.57;97569.50;5093757;28;19944;-75
2023/07/03 01:10:55;;;;;;;;;;;;;;;23.79;56.47;97567.56;5093512;28;19928;-75
2023/07/03 01:13:22;;;;;;;;;;;;;;;23.78;56.62;97568.69;5085393;28;19925;-75
2023/07/03 01:15:49;;;;;;;;;;;;;;;23.82;56.56;97574.22;5092107;28;19924;-75
2023/07/03 01:18:17;;;;;;;;;;;;;;;23.81;56.83;97567.19;5083273;28;19925;-75
2023/07/03 01:20:46;;;;;;;;;;;;;;;23.77;56.97;97566.34;5092449;28;19987;-74
2023/07/03 01:23:16;;;;;;;;;;;;;;;23.72;57.14;97567.41;5091573;28;19947;-74
2023/07/03 01:25:44;;;;;;;;;;;;;;;23.75;57.36;97565.88;5091643;28;19988;-74
2023/07/03 01:28:13;;;;;;;;;;;;;;;23.70;57.53;97560.72;5091557;28;19924;-74
2023/07/03 01:30:41;;;;;;;;;;;;;;;23.71;57.71;97570.47;5091302;28;19951;-72
2023/07/03 01:33:08;;;;;;;;;;;;;;;23.61;58.09;97572.59;5091207;28;19955;-72
2023/07/03 01:35:34;;;;;;;;;;;;;;;23.63;58.36;97569.53;5091229;28;19964;-72
2023/07/03 01:38:02;;;;;;;;;;;;;;;23.58;58.53;97567.88;5091115;28;19931;-73
2023/07/03 01:40:28;;;;;;;;;;;;;;;23.57;58.75;97569.03;5081345;28;19924;-73
2023/07/03 01:42:56;;;;;;;;;;;;;;;23.62;58.86;97566.00;5090983;28;20310;-73
2023/07/03 01:45:23;;;;;;;;;;;;;;;23.59;59.10;97580.34;5090951;28;19931;-73
2023/07/03 01:47:49;;;;;;;;;;;;;;;23.59;59.41;97568.66;5090924;28;19956;-73
2023/07/03 01:50:17;;;;;;;;;;;;;;;23.53;59.52;97575.53;5090816;28;19924;-73
2023/07/03 01:52:47;;;;;;;;;;;;;;;23.50;59.72;97574.31;5090245;28;19992;-73
2023/07/03 01:55:18;;;;;;;;;;;;;;;23.46;60.07;97564.47;5090643;28;19987;-73
2023/07/03 01:57:46;;;;;;;;;;;;;;;23.37;60.15;97567.34;5091041;28;19991;-73
2023/07/03 02:00:19;;;;;;;;;;;;;;;23.33;60.16;97577.41;5091053;28;19924;-73
2023/07/03 02:02:47;;;;;;;;;;;;;;;23.38;60.09;97565.44;5091280;28;19997;-73
2023/07/03 02:05:16;;;;;;;;;;;;;;;23.40;59.64;97568.59;5091163;28;19924;-73
2023/07/03 02:07:44;;;;;;;;;;;;;;;23.46;59.56;97564.47;5090994;28;19924;-73
2023/07/03 02:10:11;;;;;;;;;;;;;;;23.38;59.36;97562.69;5090761;28;19991;-73
2023/07/03 02:12:41;;;;;;;;;;;;;;;23.34;59.28;97562.63;5090817;28;19955;-73
2023/07/03 02:15:08;;;;;;;;;;;;;;;23.29;59.28;97573.00;5090825;28;19925;-73
2023/07/03 02:17:36;;;;;;;;;;;;;;;23.33;59.05;97574.69;5090816;28;19935;-73
2023/07/03 02:20:03;;;;;;;;;;;;;;;23.34;59.44;97578.97;5090730;28;20282;-72
2023/07/03 02:22:29;;;;;;;;;;;;;;;23.31;59.45;97576.94;5090676;28;20531;-73
2023/07/03 02:24:56;;;;;;;;;;;;;;;23.28;59.26;97583.09;5090506;28;19983;-72
2023/07/03 02:27:22;;;;;;;;;;;;;;;23.28;59.38;97585.81;5090485;28;19967;-73
2023/07/03 02:29:49;;;;;;;;;;;;;;;23.31;59.52;97576.94;5090376;28;19952;-73
2023/07/03 02:32:16;;;;;;;;;;;;;;;23.27;59.71;97583.47;5090418;28;19925;-73
2023/07/03 02:34:44;;;;;;;;;;;;;;;23.26;59.92;97581.88;5080540;28;19952;-75
2023/07/03 02:37:11;;;;;;;;;;;;;;;23.24;59.84;97574.03;5090513;28;19928;-75
2023/07/03 02:39:38;;;;;;;;;;;;;;;23.31;59.83;97584.31;5090630;28;19925;-75
2023/07/03 02:42:04;;;;;;;;;;;;;;;23.28;59.57;97585.81;5090533;28;19924;-75
2023/07/03 02:44:31;;;;;;;;;;;;;;;23.20;59.55;97578.63;5090531;28;19928;-74
2023/07/03 02:46:57;;;;;;;;;;;;;;;23.27;59.31;97573.38;5080948;28;19925;-74
2023/07/03 02:49:27;;;;;;;;;;;;;;;23.23;59.30;97586.09;5090399;28;19994;-75
2023/07/03 02:51:55;;;;;;;;;;;;;;;23.18;59.22;97574.69;5090322;28;19924;-75
2023/07/03 02:54:21;;;;;;;;;;;;;;;23.23;59.11;97580.66;5090501;28;19960;-75
2023/07/03 02:56:47;;;;;;;;;;;;;;;23.15;59.28;97583.56;5090475;28;19924;-75
2023/07/03 02:59:14;;;;;;;;;;;;;;;23.14;59.11;97577.31;5090322;28;19968;-73
2023/07/03 03:01:41;;;;;;;;;;;;;;;22.99;59.04;97578.13;5090417;28;19956;-75
2023/07/03 03:04:07;;;;;;;;;;;;;;;23.02;59.31;97578.22;5090583;28;19924;-75
2023/07/03 03:06:34;;;;;;;;;;;;;;;23.08;59.27;97576.00;5092333;28;19932;-75
2023/07/03 03:09:01;;;;;;;;;;;;;;;23.02;59.42;97583.66;5088845;28;19947;-75
2023/07/03 03:11:28;;;;;;;;;;;;;;;23.03;59.18;97587.94;5090102;28;19924;-75
2023/07/03 03:13:54;;;;;;;;;;;;;;;23.06;58.94;97586.44;5094224;28;19924;-74
2023/07/03 03:16:20;;;;;;;;;;;;;;;23.03;58.93;97585.22;5094155;28;20049;-75
2023/07/03 03:18:47;;;;;;;;;;;;;;;23.02;58.99;97586.38;5084756;28;19948;-74
2023/07/03 03:21:15;;;;;;;;;;;;;;;23.05;59.03;97588.41;5093849;28;19936;-74
2023/07/03 03:23:41;;;;;;;;;;;;;;;23.13;58.66;97589.34;5084344;28;19929;-74
2023/07/03 03:26:09;;;;;;;;;;;;;;;23.03;58.97;97585.22;5084308;28;19951;-74
2023/07/03 03:28:35;;;;;;;;;;;;;;;22.73;59.64;97583.28;5094056;28;19936;-75
2023/07/03 03:31:02;;;;;;;;;;;;;;;22.79;59.71;97590.03;5093641;28;20414;-75
2023/07/03 03:33:28;;;;;;;;;;;;;;;22.88;59.31;97593.38;5093707;28;20015;-75
2023/07/03 03:35:54;;;;;;;;;;;;;;;22.84;59.48;97590.56;5084340;28;19936;-75
2023/07/03 03:38:21;;;;;;;;;;;;;;;22.90;59.63;97593.84;5092570;28;19967;-75
2023/07/03 03:40:54;;;;;;;;;;;;;;;22.33;60.18;97591.50;5093894;28;19924;-75
2023/07/03 03:43:22;;;;;;;;;;;;;;;21.67;62.97;97588.38;5085749;28;19941;-74
2023/07/03 03:45:53;;;;;;;;;;;;;;;21.42;64.95;97590.34;5092054;28;19924;-74
2023/07/03 03:48:19;;;;;;;;;;;;;;;21.73;64.73;97587.81;5093694;28;19925;-74
2023/07/03 03:50:46;;;;;;;;;;;;;;;22.09;63.83;97588.88;5083965;28;19963;-75
2023/07/03 03:53:12;;;;;;;;;;;;;;;22.24;62.70;97586.22;5093261;28;20447;-73
2023/07/03 03:55:39;;;;;;;;;;;;;;;22.30;62.63;97592.19;5092883;28;19946;-73
2023/07/03 03:58:05;;;;;;;;;;;;;;;22.50;61.90;97586.53;5093371;28;19924;-72
2023/07/03 04:00:34;;;;;;;;;;;;;;;22.50;61.92;97588.47;5092967;28;19924;-73
2023/07/03 04:03:01;;;;;;;;;;;;;;;22.58;61.77;97593.78;5093435;28;19925;-74
2023/07/03 04:05:27;;;;;;;;;;;;;;;22.59;61.48;97589.13;5093140;28;19924;-73
2023/07/03 04:07:54;;;;;;;;;;;;;;;22.68;61.02;97586.28;5083294;28;19959;-72
2023/07/03 04:10:20;;;;;;;;;;;;;;;22.77;60.88;97598.56;5092718;28;19924;-72
2023/07/03 04:12:46;;;;;;;;;;;;;;;22.84;60.51;97592.53;5083377;28;19996;-72
2023/07/03 04:15:13;;;;;;;;;;;;;;;22.91;60.64;97593.47;5092467;28;19956;-72
2023/07/03 04:17:40;;;;;;;;;;;;;;;22.85;60.58;97599.53;5092820;28;19931;-72
2023/07/03 04:20:10;;;;;;;;;;;;;;;23.00;60.42;97598.75;5092587;28;19983;-72
2023/07/03 04:22:36;;;;;;;;;;;;;;;22.96;60.16;97597.91;5092360;28;20035;-73
2023/07/03 04:25:03;;;;;;;;;;;;;;;22.89;60.42;97603.16;5092685;28;19948;-72
2023/07/03 04:27:29;;;;;;;;;;;;;;;22.85;60.55;97597.59;5083185;28;19992;-72
2023/07/03 04:29:55;;;;;;;;;;;;;;;22.82;60.32;97595.59;5092232;28;19932;-73
2023/07/03 04:32:22;;;;;;;;;;;;;;;22.73;61.04;97602.34;5092575;28;19967;-73
2023/07/03 04:34:49;;;;;;;;;;;;;;;22.25;62.92;97597.91;5092350;28;19968;-73
2023/07/03 04:37:17;;;;;;;;;;;;;;;22.32;62.55;97598.88;5092174;28;19947;-72
2023/07/03 04:39:43;;;;;;;;;;;;;;;22.45;62.52;97603.13;5092154;28;19951;-72
2023/07/03 04:42:13;;;;;;;;;;;;;;;22.59;62.67;97608.19;5092186;28;19924;-71
2023/07/03 04:44:39;;;;;;;;;;;;;;;22.58;62.29;97599.22;5092007;28;20031;-71
2023/07/03 04:47:06;;;;;;;;;;;;;;;22.69;61.47;97607.69;5091713;28;19979;-71
2023/07/03 04:49:32;;;;;;;;;;;;;;;22.73;61.47;97610.50;5091736;28;19936;-71
2023/07/03 04:52:00;;;;;;;;;;;;;;;22.82;60.97;97605.69;5091540;28;19924;-71
2023/07/03 04:54:27;;;;;;;;;;;;;;;22.62;61.26;97606.69;5091444;28;19947;-71
2023/07/03 04:56:54;;;;;;;;;;;;;;;22.59;61.66;97605.47;5091523;28;20016;-71
2023/07/03 04:59:20;;;;;;;;;;;;;;;22.53;61.73;97614.97;5083507;28;19924;-71
2023/07/03 05:01:47;;;;;;;;;;;;;;;22.65;61.96;97616.88;5090386;28;19928;-73
2023/07/03 05:04:13;;;;;;;;;;;;;;;22.65;61.49;97611.44;5091863;28;20092;-72
2023/07/03 05:06:40;;;;;;;;;;;;;;;22.70;61.20;97605.75;5092589;28;19956;-72
2023/07/03 05:09:08;;;;;;;;;;;;;;;22.49;61.62;97614.13;5092477;28;19924;-72
2023/07/03 05:11:35;;;;;;;;;;;;;;;22.62;61.69;97614.84;5092551;28;19924;-72
2023/07/03 05:14:01;;;;;;;;;;;;;;;22.29;62.38;97605.00;5092462;28;19997;-72
2023/07/03 05:16:27;;;;;;;;;;;;;;;22.28;63.05;97614.31;5091942;28;19935;-72
2023/07/03 05:18:54;;;;;;;;;;;;;;;22.34;63.27;97615.66;5091861;28;19925;-72
2023/07/03 05:21:20;;;;;;;;;;;;;;;22.10;64.01;97609.53;5091423;28;19988;-72
2023/07/03 05:23:47;;;;;;;;;;;;;;;22.16;64.02;97611.63;5091434;28;19959;-72
2023/07/03 05:26:17;;;;;;;;;;;;;;;22.11;64.55;97620.03;5091289;28;20873;-72
2023/07/03 05:28:43;;;;;;;;;;;;;;;22.22;64.50;97621.13;5091498;28;19967;-73
2023/07/03 05:31:09;;;;;;;;;;;;;;;22.26;64.17;97626.66;5092268;28;19924;-73
2023/07/03 05:33:36;;;;;;;;;;;;;;;22.25;64.21;97625.88;5092250;28;19920;-73
2023/07/03 05:36:03;;;;;;;;;;;;;;;22.26;64.35;97622.03;5083442;28;20302;-73
2023/07/03 05:38:30;;;;;;;;;;;;;;;22.33;64.84;97616.00;5093102;28;19920;-74
2023/07/03 05:40:56;;;;;;;;;;;;;;;22.30;64.93;97630.28;5091963;28;19955;-73
2023/07/03 05:43:26;;;;;;;;;;;;;;;22.22;64.98;97623.84;5083462;28;19947;-73
2023/07/03 05:45:52;;;;;;;;;;;;;;;22.27;64.94;97629.06;5090663;28;19936;-72
2023/07/03 05:48:19;;;;;;;;;;;;;;;22.35;64.98;97630.81;5091080;28;20024;-72
2023/07/03 05:50:45;;;;;;;;;;;;;;;22.34;64.88;97633.91;5090987;28;19960;-73
2023/07/03 05:53:12;;;;;;;;;;;;;;;22.28;65.40;97633.34;5091033;28;19925;-73
2023/07/03 05:55:38;;;;;;;;;;;;;;;22.35;65.20;97639.00;5090598;28;19924;-73
2023/07/03 05:58:05;;;;;;;;;;;;;;;22.28;65.39;97640.75;5081243;28;19991;-73
2023/07/03 06:00:33;;;;;;;;;;;;;;;22.28;65.17;97638.78;5081303;28;19974;-72
2023/07/03 06:03:02;;;;;;;;;;;;;;;22.31;65.32;97635.38;5090749;28;19924;-73
2023/07/03 06:05:28;;;;;;;;;;;;;;;22.29;65.36;97634.94;5090730;28;19951;-73
2023/07/03 06:07:54;;;;;;;;;;;;;;;22.24;65.63;97637.13;5090674;28;19935;-72
2023/07/03 06:10:23;;;;;;;;;;;;;;;22.29;65.42;97632.22;5090594;28;20266;-73
2023/07/03 06:12:49;;;;;;;;;;;;;;;22.32;65.25;97630.72;5090588;28;19920;-72
2023/07/03 06:15:16;;;;;;;;;;;;;;;22.39;65.03;97631.72;5090567;28;19932;-73
2023/07/03 06:17:44;;;;;;;;;;;;;;;22.41;65.09;97636.81;5090341;28;19928;-73
2023/07/03 06:20:11;;;;;;;;;;;;;;;22.46;64.93;97642.81;5090498;28;19952;-73
2023/07/03 06:22:38;;;;;;;;;;;;;;;22.38;65.28;97634.78;5090283;28;19935;-73
2023/07/03 06:25:06;;;;;;;;;;;;;;;22.28;64.89;97644.22;5090710;28;19927;-73
2023/07/03 06:27:32;;;;;;;;;;;;;;;22.39;65.14;97652.69;5091031;28;19950;-73
2023/07/03 06:29:59;;;;;;;;;;;;;;;22.32;64.94;97656.00;5091262;28;19980;-73
2023/07/03 06:32:25;;;;;;;;;;;;;;;22.08;65.99;97653.34;5090985;28;19960;-74
2023/07/03 06:34:53;;;;;;;;;;;;;;;21.91;66.51;97659.84;5090778;28;19925;-73
2023/07/03 06:37:19;;;;;;;;;;;;;;;21.90;67.15;97662.91;5090543;28;19924;-73
2023/07/03 06:39:46;;;;;;;;;;;;;;;22.02;67.11;97658.25;5092737;28;20066;-72
2023/07/03 06:42:12;;;;;;;;;;;;;;;22.15;66.66;97663.66;5094593;28;19946;-73
2023/07/03 06:44:40;;;;;;;;;;;;;;;22.13;66.35;97657.78;5094133;28;19924;-73
2023/07/03 06:47:07;;;;;;;;;;;;;;;22.19;66.78;97657.19;5094438;28;19920;-73
2023/07/03 06:49:34;;;;;;;;;;;;;;;22.22;66.43;97661.91;5084649;28;19928;-72
2023/07/03 06:52:02;;;;;;;;;;;;;;;22.26;66.22;97659.31;5094170;28;19934;-73
2023/07/03 06:54:29;;;;;;;;;;;;;;;22.17;66.66;97656.72;5093913;28;19976;-73
2023/07/03 06:56:55;;;;;;;;;;;;;;;22.16;66.72;97652.41;5093938;28;19927;-72
2023/07/03 06:59:21;;;;;;;;;;;;;;;22.03;67.29;97650.91;5094159;28;19924;-72
2023/07/03 07:01:48;;;;;;;;;;;;;;;21.99;67.07;97650.78;5094115;28;19936;-73
2023/07/03 07:04:15;;;;;;;;;;;;;;;22.15;66.53;97656.31;5094199;28;19963;-73
2023/07/03 07:06:41;;;;;;;;;;;;;;;22.22;66.01;97648.31;5093722;28;19924;-73
2023/07/03 07:09:09;;;;;;;;;;;;;;;22.12;66.51;97662.44;5093766;28;19960;-73
2023/07/03 07:11:36;;;;;;;;;;;;;;;22.24;65.67;97648.00;5093736;28;19959;-73
2023/07/03 07:14:03;;;;;;;;;;;;;;;22.26;65.71;97651.94;5093656;28;19984;-72
2023/07/03 07:16:32;;;;;;;;;;;;;;;22.41;65.19;97650.41;5083931;28;19980;-73
2023/07/03 07:19:00;;;;;;;;;;;;;;;22.41;65.21;97651.22;5085610;28;19997;-74
2023/07/03 07:21:27;;;;;;;;;;;;;;;22.47;64.61;97644.38;5093750;28;19932;-73
2023/07/03 07:23:54;;;;;;;;;;;;;;;22.34;65.19;97640.16;5093374;28;19952;-72
2023/07/03 07:26:23;;;;;;;;;;;;;;;22.22;65.57;97632.00;5093933;28;19992;-73
2023/07/03 07:28:49;;;;;;;;;;;;;;;22.19;65.41;97635.41;5093912;28;20370;-72
2023/07/03 07:31:20;;;;;;;;;;;;;;;22.23;65.58;97638.25;5093453;28;19939;-72
2023/07/03 07:33:46;;;;;;;;;;;;;;;22.28;65.54;97636.06;5093691;28;19971;-73
2023/07/03 07:36:13;;;;;;;;;;;;;;;22.43;65.15;97631.84;5093412;28;20056;-73
2023/07/03 07:38:39;;;;;;;;;;;;;;;22.32;65.15;97636.97;5093393;28;19934;-74
2023/07/03 07:41:05;;;;;;;;;;;;;;;22.38;65.50;97632.06;5087108;28;20001;-74
2023/07/03 07:43:33;;;;;;;;;;;;;;;22.12;65.23;97637.94;5089747;28;19932;-73
2023/07/03 07:46:00;;;;;;;;;;;;;;;22.26;65.55;97643.00;5093363;28;19920;-73
2023/07/03 07:48:26;;;;;;;;;;;;;;;22.36;65.51;97640.59;5093155;28;19963;-73
2023/07/03 07:50:53;;;;;;;;;;;;;;;22.52;65.33;97641.44;5092420;28;19959;-73
2023/07/03 07:53:19;;;;;;;;;;;;;;;22.62;64.78;97636.63;5092967;28;19935;-73
2023/07/03 07:55:46;;;;;;;;;;;;;;;22.67;64.47;97642.63;5093004;28;19935;-73
2023/07/03 07:58:14;;;;;;;;;;;;;;;22.68;64.52;97641.50;5083564;28;19963;-74
2023/07/03 08:00:44;;;;;;;;;;;;;;;22.65;64.34;97639.47;5083677;28;20362;-74
2023/07/03 08:03:10;;;;;;;;;;;;;;;22.76;63.27;97634.31;5086439;28;19951;-74
2023/07/03 08:05:37;;;;;;;;;;;;;;;22.68;63.34;97632.53;5090288;28;19936;-73
2023/07/03 08:08:04;;;;;;;;;;;;;;;22.56;63.11;97615.09;5092851;28;19929;-74
2023/07/03 08:10:30;;;;;;;;;;;;;;;22.69;63.24;97617.78;5083629;28;19930;-73
2023/07/03 08:12:57;;;;;;;;;;;;;;;22.83;62.62;97615.44;5093002;28;20015;-74
2023/07/03 08:15:23;;;;;;;;;;;;;;;23.10;62.33;97606.41;5093034;28;19925;-74
2023/07/03 08:17:51;;;;;;;;;;;;;;;23.30;61.73;97610.81;5092897;28;19932;-74
2023/07/03 08:20:17;;;;;;;;;;;;;;;23.46;61.21;97608.88;5092920;28;19999;-72
2023/07/03 08:22:44;;;;;;;;;;;;;;;23.67;60.71;97613.25;5092747;28;19924;-73
2023/07/03 08:25:10;;;;;;;;;;;;;;;23.85;59.74;97614.44;5086377;28;19925;-73
2023/07/03 08:27:37;;;;;;;;;;;;;;;24.22;59.09;97607.47;5089883;28;19924;-73
2023/07/03 08:30:05;;;;;;;;;;;;;;;24.32;58.41;97612.34;5092645;28;20663;-73
2023/07/03 08:32:31;;;;;;;;;;;;;;;24.43;58.08;97609.81;5092932;28;19924;-73
2023/07/03 08:34:59;;;;;;;;;;;;;;;24.66;57.13;97613.41;5086270;28;19920;-74
2023/07/03 08:37:25;;;;;;;;;;;;;;;24.80;56.42;97615.59;5086616;28;19925;-73
2023/07/03 08:39:51;;;;;;;;;;;;;;;24.75;55.97;97615.88;5083633;28;19924;-74
2023/07/03 08:42:22;;;;;;;;;;;;;;;24.65;55.73;97609.88;5085281;28;19925;-73
2023/07/03 08:44:49;;;;;;;;;;;;;;;24.62;55.60;97610.59;5091454;28;19924;-74
2023/07/03 08:47:18;;;;;;;;;;;;;;;24.57;55.67;97607.38;5092464;28;19984;-74
2023/07/03 08:49:46;;;;;;;;;;;;;;;24.49;55.83;97611.09;5092292;28;19928;-74
2023/07/03 08:52:16;;;;;;;;;;;;;;;24.53;54.91;97609.22;5092445;28;19931;-74
2023/07/03 08:54:43;;;;;;;;;;;;;;;24.55;54.30;97605.00;5082753;28;19971;-74
2023/07/03 08:57:10;;;;;;;;;;;;;;;24.58;54.26;97604.25;5092276;28;19928;-75
2023/07/03 08:59:37;;;;;;;;;;;;;;;24.81;54.96;97606.25;5092351;28;20386;-74
2023/07/03 09:02:10;;;;;;;;;;;;;;;24.70;55.17;97600.56;5092116;28;19963;-74
2023/07/03 09:04:45;;;;;;;;;;;;;;;24.76;55.43;97598.34;5091751;28;19924;-73
2023/07/03 09:07:14;;;;;;;;;;;;;;;24.91;55.16;97592.03;5091718;28;19924;-73
2023/07/03 09:09:47;;;;;;;;;;;;;;;24.86;54.69;97595.03;5082236;28;19924;-74
2023/07/03 09:12:16;;;;;;;;;;;;;;;24.77;53.34;97599.91;5091994;28;19952;-74
2023/07/03 09:14:46;;;;;;;;;;;;;;;24.62;54.19;97596.16;5091856;28;19928;-73
2023/07/03 09:17:13;;;;;;;;;;;;;;;24.66;53.84;97603.25;5092117;28;19924;-73
2023/07/03 09:19:42;;;;;;;;;;;;;;;24.60;53.79;97604.69;5092211;28;19936;-74
2023/07/03 09:22:11;;;;;;;;;;;;;;;24.61;53.67;97609.00;5090673;28;19925;-73
2023/07/03 09:24:39;;;;;;;;;;;;;;;24.51;53.69;97597.91;5091971;28;19935;-73
2023/07/03 09:27:10;;;;;;;;;;;;;;;24.56;53.03;97597.59;5091544;28;19924;-73
2023/07/03 09:29:37;;;;;;;;;;;;;;;24.43;53.27;97607.09;5082048;28;19963;-73
2023/07/03 09:32:04;;;;;;;;;;;;;;;24.38;53.81;97610.91;5085724;28;19956;-73
2023/07/03 09:34:57;;;;;;;;;;;;;;;24.42;53.38;97611.75;5086478;28;20433;-74
2023/07/03 09:37:23;;;;;;;;;;;;;;;24.29;54.18;97612.28;5086634;28;19935;-73
2023/07/03 09:39:52;;;;;;;;;;;;;;;24.27;54.50;97609.88;5091155;28;19920;-73
2023/07/03 09:42:21;;;;;;;;;;;;;;;24.33;54.41;97604.94;5091275;28;19935;-73
2023/07/03 09:44:47;;;;;;;;;;;;;;;24.33;54.80;97622.09;5091111;28;19956;-74
2023/07/03 09:47:17;;;;;;;;;;;;;;;24.37;54.54;97614.78;5091290;28;19960;-74
2023/07/03 09:49:43;;;;;;;;;;;;;;;24.34;55.15;97615.50;5091538;28;19924;-73
2023/07/03 09:52:10;;;;;;;;;;;;;;;24.39;54.92;97631.56;5089931;28;19980;-73
2023/07/03 09:54:42;;;;;;;;;;;;;;;24.40;55.19;97624.97;5091084;28;19931;-73
2023/07/03 09:57:18;;;;;;;;;;;;;;;24.35;55.28;97624.47;5091358;28;19924;-73
2023/07/03 09:59:46;;;;;;;;;;;;;;;24.33;55.10;97622.09;5091991;28;19963;-74
2023/07/03 10:02:12;;;;;;;;;;;;;;;24.35;55.33;97614.34;5091879;28;19952;-74
2023/07/03 10:04:43;;;;;;;;;;;;;;;24.29;55.57;97623.97;5091213;28;19924;-74
2023/07/03 10:07:13;;;;;;;;;;;;;;;24.28;56.03;97622.41;5091056;28;20055;-74
2023/07/03 10:09:41;;;;;;;;;;;;;;;24.29;55.98;97623.19;5090801;28;19932;-73
2023/07/03 10:12:11;;;;;;;;;;;;;;;24.21;55.71;97621.44;5091176;28;19924;-73
2023/07/03 10:14:41;;;;;;;;;;;;;;;24.21;56.44;97622.25;5090387;28;19924;-74
2023/07/03 10:17:12;;;;;;;;;;;;;;;24.28;56.61;97630.59;5090790;28;20026;-74
2023/07/03 10:19:40;;;;;;;;;;;;;;;24.29;56.46;97632.16;5090704;28;20010;-74
2023/07/03 10:22:07;;;;;;;;;;;;;;;24.35;56.50;97628.00;5090610;28;19971;-74
2023/07/03 10:24:35;;;;;;;;;;;;;;;24.28;56.67;97633.31;5090516;28;19924;-74
2023/07/03 10:27:03;;;;;;;;;;;;;;;24.29;56.71;97629.44;5090610;28;19931;-74
2023/07/03 10:29:32;;;;;;;;;;;;;;;24.39;56.50;97625.31;5090687;28;19929;-74
2023/07/03 10:32:00;;;;;;;;;;;;;;;24.47;56.21;97625.13;5082425;28;19931;-74
2023/07/03 10:34:37;;;;;;;;;;;;;;;24.36;56.45;97626.84;5090486;28;19931;-74
2023/07/03 10:37:05;;;;;;;;;;;;;;;24.35;56.94;97625.28;5082867;28;19972;-73
2023/07/03 10:39:36;;;;;;;;;;;;;;;24.44;56.83;97631.31;5089332;28;19963;-73
2023/07/03 10:42:04;;;;;;;;;;;;;;;24.48;56.58;97621.22;5082741;28;19980;-73
2023/07/03 10:44:33;;;;;;;;;;;;;;;24.45;56.89;97643.03;5090514;28;19939;-74
2023/07/03 10:47:00;;;;;;;;;;;;;;;24.52;56.85;97629.47;5081444;28;20016;-74
2023/07/03 10:49:30;;;;;;;;;;;;;;;24.57;56.29;97638.16;5090342;28;19932;-74
2023/07/03 10:52:03;;;;;;;;;;;;;;;24.55;56.65;97631.50;5090383;28;19951;-73
2023/07/03 10:54:31;;;;;;;;;;;;;;;24.53;56.47;97640.06;5091751;28;19931;-73
2023/07/03 10:56:59;;;;;;;;;;;;;;;24.55;56.55;97632.28;5082087;28;19977;-73
2023/07/03 10:59:28;;;;;;;;;;;;;;;24.50;56.60;97635.31;5090335;28;20023;-73
2023/07/03 11:01:57;;;;;;;;;;;;;;;24.51;57.01;97642.34;5090353;28;19959;-74
2023/07/03 11:04:28;;;;;;;;;;;;;;;24.41;57.09;97631.22;5090379;28;19968;-73
2023/07/03 11:07:02;;;;;;;;;;;;;;;24.40;56.92;97633.16;5090397;28;19924;-72
2023/07/03 11:09:34;;;;;;;;;;;;;;;24.41;56.80;97631.22;5080644;28;19924;-73
2023/07/03 11:12:06;;;;;;;;;;;;;;;24.52;56.44;97634.94;5082698;28;19924;-73
2023/07/03 11:14:35;;;;;;;;;;;;;;;24.52;56.78;97633.00;5089913;28;19924;-74
2023/07/03 11:17:06;;;;;;;;;;;;;;;24.55;56.79;97631.50;5090149;28;19924;-73
2023/07/03 11:19:37;;;;;;;;;;;;;;;24.50;55.83;97624.41;5089955;28;19954;-74
2023/07/03 11:22:12;;;;;;;;;;;;;;;24.54;56.13;97616.28;5082658;28;19975;-72
2023/07/03 11:24:44;;;;;;;;;;;;;;;24.59;56.15;97608.59;5090144;28;19924;-73
2023/07/03 11:27:14;;;;;;;;;;;;;;;24.60;55.85;97601.94;5092924;28;19988;-73
2023/07/03 11:29:42;;;;;;;;;;;;;;;24.62;55.61;97605.13;5093786;28;20023;-73
2023/07/03 11:32:09;;;;;;;;;;;;;;;24.68;55.75;97600.94;5084410;28;19925;-73
2023/07/03 11:34:36;;;;;;;;;;;;;;;24.78;55.63;97587.84;5093315;28;19935;-73
2023/07/03 11:37:22;;;;;;;;;;;;;;;24.86;55.59;97589.56;5102041;28;19924;-73
2023/07/03 11:39:51;;;;;;;;;;;;;;;24.96;54.89;97591.72;5093727;28;19924;-72
2023/07/03 11:42:23;;;;;;;;;;;;;;;24.92;54.97;97579.91;5093738;28;19925;-73
2023/07/03 11:44:57;;;;;;;;;;;;;;;25.01;54.38;97577.72;5093329;28;19925;-73
2023/07/03 11:47:25;;;;;;;;;;;;;;;25.05;53.99;97584.84;5093459;28;20366;-73
2023/07/03 11:49:54;;;;;;;;;;;;;;;25.00;54.07;97578.91;5093305;28;19939;-73
2023/07/03 11:52:24;;;;;;;;;;;;;;;25.00;53.93;97578.91;5093405;28;20044;-73
2023/07/03 11:55:00;;;;;;;;;;;;;;;24.98;54.13;97573.00;5093199;28;19977;-74
2023/07/03 11:57:29;;;;;;;;;;;;;;;25.07;53.83;97576.28;5093332;28;19967;-73
2023/07/03 12:00:12;;;;;;;;;;;;;;;25.12;54.05;97581.44;5093261;28;19924;-73
2023/07/03 12:02:44;;;;;;;;;;;;;;;25.04;53.34;97582.47;5083557;28;19935;-74
2023/07/03 12:05:11;;;;;;;;;;;;;;;25.08;52.69;97581.38;5086726;28;19932;-74
2023/07/03 12:07:48;;;;;;;;;;;;;;;25.02;52.68;97588.31;5090291;28;19950;-73
2023/07/03 12:10:33;;;;;;;;;;;;;;;25.06;52.72;97582.91;5093192;28;19952;-72
2023/07/03 12:13:18;;;;;;;;;;;;;;;25.13;52.51;97588.47;5085581;28;20350;-73
2023/07/03 12:15:46;;;;;;;;;;;;;;;25.30;49.92;97579.00;5093461;28;19925;-73
2023/07/03 12:18:13;;;;;;;;;;;;;;;25.35;49.97;97576.72;5087051;28;20517;-73
2023/07/03 12:20:40;;;;;;;;;;;;;;;25.39;49.89;97572.13;5108234;28;19963;-73
2023/07/03 12:23:06;;;;;;;;;;;;;;;25.30;50.81;97568.84;5094823;28;19925;-73
2023/07/03 12:25:32;;;;;;;;;;;;;;;25.19;50.99;97567.91;5093253;28;19986;-73
2023/07/03 12:28:08;;;;;;;;;;;;;;;25.19;50.44;97573.38;5083715;28;19944;-73
2023/07/03 12:30:36;;;;;;;;;;;;;;;25.22;49.60;97570.66;5093004;28;19963;-73
2023/07/03 12:33:06;;;;;;;;;;;;;;;25.24;49.43;97575.78;5092946;28;19935;-73
2023/07/03 12:35:33;;;;;;;;;;;;;;;25.28;49.14;97567.66;5092919;28;19935;-73
2023/07/03 12:38:01;;;;;;;;;;;;;;;25.24;49.59;97564.84;5084363;28;20440;-73
2023/07/03 12:40:27;;;;;;;;;;;;;;;25.37;47.60;97565.44;5092987;28;20027;-74
2023/07/03 12:42:55;;;;;;;;;;;;;;;25.32;48.54;97565.72;5092592;28;19971;-73
2023/07/03 12:45:23;;;;;;;;;;;;;;;25.37;47.20;97563.50;5084728;28;19952;-72
2023/07/03 12:48:00;;;;;;;;;;;;;;;25.19;48.79;97565.19;5106354;28;20424;-73
2023/07/03 12:50:28;;;;;;;;;;;;;;;25.26;49.13;97565.25;5094126;28;19980;-73
2023/07/03 12:52:56;;;;;;;;;;;;;;;25.41;47.89;97567.06;5092495;28;19929;-72